Tin City LRRS, AK

12:03 AM AKST on November 24, 2017 (GMT -0900)
Tin City | | Change Station

Elev 269 ft 65.56 °N, 167.92 °W | Updated 8 minutes ago

Light Snow Showers
Light Showers Snow
17 °F
Feels Like 5 °F
N
10
Wind Variable Wind from North

Today
High -- | Low -- °F
--% Chance of Precip.
Yesterday
High -- | Low -- °F
Precip. -- in
Pressure 30.05 in
Visibility 10.0 miles
Clouds Overcast 2900 ft
Windchill 5 °F
Dew Point 10 °F
Humidity 71%
Rainfall 0.00 in
Snow Depth Not available.
11:28 AM 4:27 PM
Waxing Crescent, 28% visible
METAR PATC 240855Z AUTO 35009KT 10SM -SHSN OVC029 M08/M12 A3003 RMK AO2 SNB0755E0819SHSNB0819 SLP176 P0000 60000 T10811125 410411081 52010 $
Pressure 30.05 in
Visibility 10.0 miles
Clouds Overcast 2900 ft
Windchill 5 °F
Dew Point 10 °F
Humidity 71%
Rainfall 0.00 in
Snow Depth Not available.
11:28 AM 4:27 PM
Waxing Crescent, 28% visible
METAR PATC 240855Z AUTO 35009KT 10SM -SHSN OVC029 M08/M12 A3003 RMK AO2 SNB0755E0819SHSNB0819 SLP176 P0000 60000 T10811125 410411081 52010 $

Get Severe Weather Alerts

Thanks for signing up!

Be on the lookout for a verification email in your inbox.

You'll start receiving the daily forecast at 6 AM.

×

10-Day Weather Forecast

Almanac

Astronomy

Nov. 24, 2017 Rise Set
Actual Time
Civil Twilight
Nautical Twilight
Astronomical Twilight
Moon
Length of Visible Light
Length of Day
Tomorrow will be .
, % of the Moon is Illuminated

Today's Extremes

State Highs State Lows

Community

WunderPhotos

Category 6

Welcome to Category 6. This is the collective home for Weather Underground's featured writeups by Dr. Jeff Masters (right), Bob Henson (left), Chris Burt, and other regular contributors.

Nearby

Air Quality

  Air Quality AQ Index Pollutant
Not available.

Snow Depth

Station Depth Elevation

Earthquake Activity

City Distance Mag. Time & Date
Minimum magnitude displayed is 2.5.

Coastal Water Temperatures

Place Temperature

Stations

Nearby Weather Stations

Station Location Temp. Windchill Dew Point Humidity Wind Precip. Elev Updated Type
                   

Watches & Warnings

There are currently no watches in effect.